Time;durP1;ratioP1;P1;durP2;ratioP2;P2;SDS_P1;SDS_P2;PMS_P1;PMS_P2;Temp;Humidity;BMP_temperature;BMP_pressure;BME280_temperature;BME280_humidity;BME280_pressure;Samples;Min_cycle;Max_cycle;Signal;HPM_P1;HPM_P2
2023/05/25 00:00:46;;;;;;;2.65;1.40;;;;;;;21.52;36.49;101456.50;4487797;28;20081;-67
2023/05/25 00:02:58;;;;;;;1.92;1.27;;;;;;;21.52;36.28;101462.25;4485752;28;20030;-67
2023/05/25 00:05:09;;;;;;;1.60;1.30;;;;;;;21.55;36.12;101481.69;4486575;28;20039;-68
2023/05/25 00:07:20;;;;;;;1.65;1.15;;;;;;;21.53;36.34;101481.19;4487829;28;20030;-66
2023/05/25 00:09:30;;;;;;;1.52;1.30;;;;;;;21.44;36.30;101466.88;4500632;28;20338;-66
2023/05/25 00:11:41;;;;;;;1.30;1.20;;;;;;;21.54;36.13;101480.81;4487353;28;20070;-67
2023/05/25 00:13:51;;;;;;;1.63;1.20;;;;;;;21.52;35.97;101483.19;4486367;28;20166;-66
2023/05/25 00:16:02;;;;;;;2.00;1.40;;;;;;;21.45;35.63;101465.72;4483790;28;20561;-66
2023/05/25 00:18:12;;;;;;;1.67;1.38;;;;;;;21.52;35.53;101474.59;4486752;28;20041;-66
2023/05/25 00:20:23;;;;;;;1.50;1.23;;;;;;;21.46;35.14;101470.25;4487465;28;20050;-67
2023/05/25 00:22:37;;;;;;;2.13;1.27;;;;;;;21.51;35.52;101472.91;4488448;28;20043;-67
2023/05/25 00:24:47;;;;;;;2.03;1.33;;;;;;;21.51;35.37;101472.91;4487378;28;20022;-67
2023/05/25 00:26:58;;;;;;;1.45;1.25;;;;;;;21.50;35.16;101481.88;4487239;28;20038;-67
2023/05/25 00:29:08;;;;;;;2.25;1.17;;;;;;;21.49;35.68;101477.31;4486251;28;20040;-67
2023/05/25 00:35:41;;;;;;;1.95;1.45;;;;;;;21.50;35.25;101476.97;4486268;28;20723;-66
2023/05/25 00:38:41;;;;;;;1.70;1.30;;;;;;;21.51;35.14;101477.81;4485937;28;20142;-67
2023/05/25 00:41:40;;;;;;;1.88;1.50;;;;;;;21.51;35.29;101477.81;4485678;28;20054;-67
2023/05/25 01:04:44;;;;;;;1.65;1.30;;;;;;;21.48;36.81;101479.38;4484052;28;20390;-67
2023/05/25 01:23:41;;;;;;;1.63;1.40;;;;;;;21.45;37.52;101473.47;4488314;28;20047;-67
2023/05/25 01:46:40;;;;;;;1.83;1.25;;;;;;;21.41;36.91;101473.34;4487431;28;20046;-66
2023/05/25 01:59:38;;;;;;;1.70;1.30;;;;;;;21.40;36.39;101474.53;4489580;28;20054;-66
2023/05/25 02:36:42;;;;;;;1.60;1.20;;;;;;;21.35;34.45;101473.91;4488659;28;20047;-66
2023/05/25 02:39:39;;;;;;;1.80;1.20;;;;;;;21.34;34.13;101475.09;4487132;28;20077;-66
2023/05/25 02:42:39;;;;;;;1.58;1.20;;;;;;;21.34;34.01;101475.97;4486894;28;20128;-66
2023/05/25 02:45:39;;;;;;;1.60;1.10;;;;;;;21.33;34.39;101470.53;4487335;28;20149;-66
2023/05/25 02:48:40;;;;;;;1.15;1.05;;;;;;;21.28;34.27;101459.28;4486616;28;21248;-67
2023/05/25 02:51:41;;;;;;;2.00;1.35;;;;;;;21.32;34.34;101466.00;4502452;28;21667;-67
2023/05/25 02:54:38;;;;;;;1.20;1.10;;;;;;;21.32;34.47;101466.00;4500669;28;20038;-66
2023/05/25 03:00:41;;;;;;;1.20;1.10;;;;;;;21.30;34.27;101477.84;4486775;28;20062;-66
2023/05/25 03:03:38;;;;;;;1.40;1.20;;;;;;;21.30;33.98;101480.72;4488244;28;20663;-68
2023/05/25 03:06:39;;;;;;;1.13;1.02;;;;;;;21.31;34.00;101484.44;4487331;28;20050;-66
2023/05/25 03:09:39;;;;;;;1.50;1.10;;;;;;;21.30;33.66;101489.31;4487655;28;20046;-67
2023/05/25 03:12:39;;;;;;;1.48;1.10;;;;;;;21.29;33.37;101499.13;4489013;28;20103;-66
2023/05/25 03:18:39;;;;;;;1.88;1.20;;;;;;;21.26;33.72;101496.97;4487419;28;20046;-67
2023/05/25 03:21:40;;;;;;;1.90;1.20;;;;;;;21.28;33.50;101508.09;4486013;28;20050;-67
2023/05/25 03:36:38;;;;;;;1.67;1.42;;;;;;;21.25;33.55;101498.13;4485957;28;20145;-67
2023/05/25 03:48:41;;;;;;;1.60;1.50;;;;;;;21.24;33.50;101512.84;4485548;28;19921;-67
2023/05/25 03:51:38;;;;;;;2.10;1.25;;;;;;;21.24;33.61;101519.44;4487523;28;20518;-67
2023/05/25 03:54:40;;;;;;;2.42;1.25;;;;;;;21.23;34.25;101506.25;4487440;28;20038;-67
2023/05/25 04:03:40;;;;;;;1.63;1.20;;;;;;;21.21;34.44;101520.16;4485394;28;20049;-67
2023/05/25 04:12:41;;;;;;;1.85;1.30;;;;;;;21.20;34.52;101527.06;4487064;28;20487;-66
2023/05/25 04:14:52;;;;;;;1.45;1.35;;;;;;;21.18;34.62;101525.72;4485387;28;20154;-67
2023/05/25 04:17:39;;;;;;;1.38;1.17;;;;;;;21.18;34.66;101532.34;4487163;28;20049;-67
2023/05/25 04:19:51;;;;;;;1.30;1.20;;;;;;;21.19;34.62;101538.88;4483927;28;20097;-66
2023/05/25 04:22:01;;;;;;;1.33;1.20;;;;;;;21.15;34.64;101535.91;4486301;28;20081;-66
2023/05/25 04:24:40;;;;;;;1.55;1.20;;;;;;;21.19;34.94;101533.16;4487149;28;20477;-66
2023/05/25 04:26:51;;;;;;;1.20;1.10;;;;;;;21.04;34.85;101514.50;4484332;28;20133;-66
2023/05/25 04:29:39;;;;;;;1.30;1.20;;;;;;;21.19;34.88;101547.50;4485977;28;20999;-66
2023/05/25 04:32:17;;;;;;;1.85;1.33;;;;;;;21.17;35.35;101544.97;4472235;28;20100;-67
2023/05/25 04:34:41;;;;;;;1.90;1.30;;;;;;;21.18;35.40;101552.44;4495101;28;20038;-67
2023/05/25 04:37:04;;;;;;;;;;;;;;;21.18;35.34;101542.97;4496265;28;20112;-66
2023/05/25 04:39:15;;;;;;;1.92;1.20;;;;;;;21.16;35.56;101543.31;4500415;28;19924;-68
2023/05/25 04:41:30;;;;;;;1.42;1.13;;;;;;;21.13;35.99;101540.28;4486184;28;20057;-67
2023/05/25 04:43:45;;;;;;;1.55;1.30;;;;;;;21.16;36.06;101554.78;4470942;28;20031;-67
2023/05/25 05:22:39;;;;;;;1.60;1.50;;;;;;;21.11;37.87;101589.44;4488227;28;20169;-66
2023/05/25 05:25:39;;;;;;;1.88;1.42;;;;;;;21.12;38.07;101593.16;4487813;28;20050;-66
2023/05/25 05:28:40;;;;;;;1.90;1.70;;;;;;;21.11;38.35;101600.94;4487830;28;20523;-67
2023/05/25 05:31:38;;;;;;;1.77;1.60;;;;;;;21.11;38.54;101606.66;4485275;28;20034;-66
2023/05/25 05:34:39;;;;;;;2.33;1.60;;;;;;;21.11;39.01;101597.19;4469678;28;20670;-67
2023/05/25 05:44:39;;;;;;;1.85;1.50;;;;;;;21.11;39.42;101609.53;4487149;28;20613;-66
2023/05/25 05:54:39;;;;;;;2.28;1.85;;;;;;;21.10;39.61;101632.84;4488156;28;20042;-67
2023/05/25 06:23:40;;;;;;;1.95;1.75;;;;;;;21.07;40.66;101648.75;4485525;28;20081;-66
2023/05/25 06:50:39;;;;;;;2.25;1.70;;;;;;;21.06;41.84;101672.88;4485180;28;20045;-66
2023/05/25 07:10:40;;;;;;;2.58;2.03;;;;;;;21.05;41.09;101685.56;4485696;28;20038;-68
2023/05/25 07:13:41;;;;;;;2.50;1.90;;;;;;;21.05;41.42;101670.34;4485648;28;20034;-67
2023/05/25 07:16:38;;;;;;;3.40;1.92;;;;;;;21.05;41.83;101688.44;4488381;28;20537;-66
2023/05/25 07:19:39;;;;;;;3.20;2.05;;;;;;;21.05;41.76;101684.72;4485836;28;20038;-66
2023/05/25 07:22:39;;;;;;;2.20;2.00;;;;;;;21.05;42.00;101684.72;4485811;28;20178;-66
2023/05/25 08:02:38;;;;;;;2.13;1.58;;;;;;;21.02;40.71;101703.47;4486759;28;20153;-66
2023/05/25 08:05:39;;;;;;;1.95;1.52;;;;;;;21.03;40.45;101704.28;4490235;28;20045;-66
2023/05/25 08:08:40;;;;;;;2.25;1.50;;;;;;;21.02;40.17;101706.34;4485909;28;20058;-66
2023/05/25 08:11:40;;;;;;;2.28;1.75;;;;;;;21.02;40.37;101699.75;4486653;28;20050;-66
2023/05/25 08:28:40;;;;;;;2.05;1.67;;;;;;;21.02;40.94;101702.63;4486334;28;20058;-66
2023/05/25 08:38:38;;;;;;;1.40;1.10;;;;;;;21.01;40.06;101704.63;4486781;28;20043;-66
2023/05/25 08:41:38;;;;;;;1.90;1.40;;;;;;;21.01;39.76;101698.91;4486146;28;20042;-66
2023/05/25 08:44:38;;;;;;;2.65;1.50;;;;;;;21.00;39.79;101705.84;4486600;28;20044;-66
2023/05/25 08:47:39;;;;;;;1.65;1.30;;;;;;;21.00;39.93;101714.44;4488511;28;20649;-67
2023/05/25 08:50:40;;;;;;;1.73;1.40;;;;;;;21.02;40.02;101717.81;4487807;28;20041;-66
2023/05/25 08:53:40;;;;;;;2.08;1.40;;;;;;;21.01;39.91;101715.31;4486096;28;20653;-66
2023/05/25 08:56:47;;;;;;;1.60;1.25;;;;;;;21.01;40.41;101719.00;4484902;28;20046;-66
2023/05/25 08:59:25;;;;;;;1.67;1.30;;;;;;;21.00;39.92;101725.94;4487875;28;20053;-66
2023/05/25 09:28:38;;;;;;;1.65;1.27;;;;;;;21.02;40.32;101728.47;4485709;28;20105;-66
2023/05/25 09:31:39;;;;;;;2.65;1.50;;;;;;;21.02;40.30;101725.59;4484709;28;20117;-66
2023/05/25 09:34:40;;;;;;;1.52;1.40;;;;;;;21.02;40.49;101728.47;4485953;28;20041;-66
2023/05/25 09:37:40;;;;;;;1.92;1.58;;;;;;;21.02;40.39;101735.06;4489515;28;20565;-66
2023/05/25 09:40:41;;;;;;;2.58;1.40;;;;;;;21.02;40.19;101734.19;4496201;28;20562;-66
2023/05/25 09:43:41;;;;;;;2.50;1.65;;;;;;;21.03;40.22;101744.47;4489299;28;20807;-66
2023/05/25 10:10:38;;;;;;;2.92;2.40;;;;;;;21.02;40.29;101752.28;4489413;28;20042;-66
2023/05/25 10:13:38;;;;;;;2.80;2.20;;;;;;;21.02;40.15;101746.53;4489774;28;20057;-66
2023/05/25 10:16:38;;;;;;;3.10;2.35;;;;;;;21.02;40.37;101752.28;4488768;28;20041;-66
2023/05/25 10:19:40;;;;;;;2.75;2.30;;;;;;;21.03;40.25;101761.72;4487694;28;20042;-66
2023/05/25 10:49:41;;;;;;;1.88;1.65;;;;;;;21.05;39.96;101756.47;4488242;28;21007;-66
2023/05/25 11:47:40;;;;;;;2.28;1.80;;;;;;;21.07;40.83;101726.25;4486788;28;20042;-66
2023/05/25 11:50:40;;;;;;;2.17;1.65;;;;;;;21.07;40.56;101726.25;4488210;28;20046;-66
2023/05/25 12:00:38;;;;;;;2.88;1.50;;;;;;;21.07;40.54;101723.38;4486894;28;20042;-66
2023/05/25 12:13:39;;;;;;;1.98;1.70;;;;;;;21.09;41.24;101718.13;4486924;28;20042;-68
2023/05/25 12:30:40;;;;;;;2.35;1.88;;;;;;;21.11;41.65;101718.63;4487660;28;20061;-66
2023/05/25 12:43:42;;;;;;;3.40;2.40;;;;;;;21.12;41.06;101705.94;4487016;28;20805;-66
2023/05/25 12:53:41;;;;;;;3.80;2.00;;;;;;;21.14;40.81;101697.00;4487424;28;20042;-66
2023/05/25 12:56:41;;;;;;;3.63;2.20;;;;;;;21.14;40.83;101703.59;4488342;28;20045;-66
2023/05/25 12:59:41;;;;;;;3.72;2.20;;;;;;;21.15;41.09;101705.28;4486880;28;20695;-66
2023/05/25 13:14:54;;;;;;;3.70;2.08;;;;;;;21.19;41.40;101686.16;4490163;28;20047;-66
2023/05/25 13:17:04;;;;;;;2.22;1.88;;;;;;;21.21;41.81;101697.31;4490690;28;20038;-67
2023/05/25 13:28:39;;;;;;;3.30;2.13;;;;;;;21.24;40.87;101688.00;4489814;28;20054;-66
2023/05/25 13:31:40;;;;;;;2.47;1.90;;;;;;;21.24;41.19;101685.13;4489655;28;20077;-66
2023/05/25 13:45:40;;;;;;;2.90;1.80;;;;;;;21.23;41.24;101683.47;4489360;28;20035;-66
2023/05/25 13:50:38;;;;;;;2.47;1.97;;;;;;;21.19;41.30;101671.81;4490518;28;20042;-66
2023/05/25 13:53:38;;;;;;;2.97;1.70;;;;;;;21.25;41.08;101681.09;4491002;28;20262;-66
2023/05/25 13:58:49;;;;;;;2.55;1.70;;;;;;;21.23;41.14;101671.97;4491026;28;20041;-66
2023/05/25 14:01:40;;;;;;;2.22;1.60;;;;;;;21.25;40.81;101681.09;4488135;28;20100;-66
2023/05/25 14:03:51;;;;;;;2.05;1.58;;;;;;;21.22;41.17;101676.84;4489306;28;20129;-66
2023/05/25 14:06:38;;;;;;;2.92;1.80;;;;;;;21.26;41.30;101677.03;4489709;28;20743;-67
2023/05/25 14:09:38;;;;;;;2.08;1.80;;;;;;;21.26;41.26;101677.88;4487718;28;21255;-66
2023/05/25 14:12:39;;;;;;;2.53;1.80;;;;;;;21.26;41.46;101671.28;4489036;28;20750;-66
2023/05/25 14:15:39;;;;;;;3.08;1.95;;;;;;;21.26;40.98;101674.16;4487710;28;20038;-66
2023/05/25 14:18:39;;;;;;;2.10;1.88;;;;;;;21.26;40.66;101666.38;4488394;28;20041;-66
2023/05/25 14:23:50;;;;;;;2.42;1.83;;;;;;;21.25;40.75;101664.69;4488492;28;20574;-66
2023/05/25 14:26:42;;;;;;;2.58;2.20;;;;;;;21.26;39.68;101669.25;4491070;28;20046;-66
2023/05/25 14:29:39;;;;;;;3.13;2.13;;;;;;;21.26;39.52;101672.13;4501762;28;20046;-67
2023/05/25 14:43:48;;;;;;;2.28;1.60;;;;;;;21.24;39.82;101667.91;4488933;28;20046;-67
2023/05/25 14:46:39;;;;;;;2.38;1.67;;;;;;;21.14;39.91;101646.16;4489951;28;20042;-66
2023/05/25 14:54:43;;;;;;;;;;;;;;;21.28;40.15;101672.59;4487874;28;20518;-67
2023/05/25 14:57:40;;;;;;;2.78;1.50;;;;;;;21.26;39.15;101666.38;4488133;28;20489;-66
2023/05/25 15:00:40;;;;;;;1.48;1.33;;;;;;;21.27;39.20;101661.47;4489590;28;20133;-66
2023/05/25 15:03:40;;;;;;;1.80;1.30;;;;;;;21.28;39.60;101655.38;4488007;28;20054;-66
2023/05/25 15:06:41;;;;;;;1.67;1.40;;;;;;;21.27;39.54;101649.97;4487854;28;20140;-66
2023/05/25 15:09:41;;;;;;;2.50;1.42;;;;;;;21.28;39.45;101651.69;4490017;28;20617;-66
2023/05/25 15:14:41;;;;;;;2.88;1.52;;;;;;;21.27;39.84;101645.09;4487329;28;21030;-67
2023/05/25 15:20:38;;;;;;;1.67;1.35;;;;;;;21.22;39.04;101641.56;4487241;28;20046;-66
2023/05/25 15:22:52;;;;;;;2.22;1.50;;;;;;;21.26;39.47;101646.28;4488543;28;20047;-67
2023/05/25 15:25:39;;;;;;;1.33;1.20;;;;;;;21.28;39.59;101649.63;4485969;28;20030;-67
2023/05/25 15:28:40;;;;;;;1.73;1.20;;;;;;;21.28;39.76;101649.63;4485300;28;20628;-67
2023/05/25 15:31:40;;;;;;;1.80;1.30;;;;;;;21.27;39.59;101642.22;4487427;28;20043;-66
2023/05/25 15:33:51;;;;;;;1.92;1.33;;;;;;;21.28;40.05;101646.75;4486268;28;20077;-67
2023/05/25 15:36:38;;;;;;;2.22;1.50;;;;;;;21.25;39.96;101635.97;4486278;28;21447;-66
2023/05/25 15:39:38;;;;;;;1.98;1.60;;;;;;;21.28;40.10;101641.00;4487699;28;20046;-67
2023/05/25 15:50:40;;;;;;;1.30;1.13;;;;;;;21.25;40.24;101624.47;4487931;28;20097;-67
2023/05/25 15:53:40;;;;;;;1.30;1.05;;;;;;;21.29;40.71;101633.25;4488570;28;20050;-66
2023/05/25 15:56:40;;;;;;;1.83;1.42;;;;;;;21.30;40.28;101626.31;4487777;28;20854;-66
2023/05/25 16:04:39;;;;;;;1.60;1.00;;;;;;;21.28;40.30;101620.91;4485939;28;20038;-66
2023/05/25 16:07:39;;;;;;;1.52;1.20;;;;;;;21.30;40.48;101626.31;4487226;28;20038;-67
2023/05/25 16:09:50;;;;;;;1.23;1.13;;;;;;;21.26;39.49;101619.59;4487724;28;20045;-66
2023/05/25 16:12:00;;;;;;;1.50;1.38;;;;;;;21.26;39.79;101613.84;4488635;28;20116;-66
2023/05/25 16:14:11;;;;;;;1.17;1.02;;;;;;;21.29;40.37;101619.75;4505536;28;20041;-66
2023/05/25 16:16:22;;;;;;;1.35;1.25;;;;;;;21.30;40.17;101626.31;4489115;28;20046;-66
2023/05/25 16:18:33;;;;;;;1.73;1.20;;;;;;;21.29;40.56;101625.50;4486373;28;20019;-66
2023/05/25 16:20:43;;;;;;;1.80;1.30;;;;;;;21.30;40.63;101621.41;4486554;28;20533;-67
2023/05/25 16:22:54;;;;;;;1.65;1.13;;;;;;;21.16;40.23;101595.00;4489031;28;20117;-66
2023/05/25 16:25:05;;;;;;;1.30;1.20;;;;;;;21.27;40.51;101615.50;4488198;28;20049;-66
2023/05/25 16:27:15;;;;;;;1.40;1.20;;;;;;;21.31;40.45;101616.53;4488228;28;20030;-66
2023/05/25 16:29:25;;;;;;;1.50;1.20;;;;;;;21.27;40.19;101609.78;4488432;28;20805;-66
2023/05/25 16:31:36;;;;;;;1.60;1.50;;;;;;;21.29;40.41;101611.13;4488193;28;20038;-66
2023/05/25 16:33:46;;;;;;;1.30;1.20;;;;;;;21.30;40.16;101620.56;4488226;28;20038;-65
2023/05/25 16:35:57;;;;;;;1.65;1.15;;;;;;;21.27;40.03;101604.03;4503044;28;20509;-66
2023/05/25 16:38:07;;;;;;;1.30;1.20;;;;;;;21.29;40.25;101613.16;4488116;28;20388;-66
2023/05/25 16:40:18;;;;;;;2.05;1.30;;;;;;;21.29;40.49;101614.00;4487912;28;20038;-67
2023/05/25 16:42:28;;;;;;;1.35;1.00;;;;;;;21.31;40.03;101616.53;4488622;28;20050;-66
2023/05/25 16:44:39;;;;;;;1.27;1.17;;;;;;;21.30;40.76;101612.81;4488848;28;20061;-67
2023/05/25 16:46:49;;;;;;;1.98;1.15;;;;;;;21.26;39.67;101602.34;4492106;28;20039;-66
2023/05/25 16:48:59;;;;;;;1.35;1.10;;;;;;;21.28;39.53;101605.72;4490309;28;20064;-66
2023/05/25 16:51:13;;;;;;;1.67;1.15;;;;;;;21.31;39.72;101602.16;4491159;28;20061;-66
2023/05/25 16:53:24;;;;;;;1.30;1.13;;;;;;;21.30;39.98;101611.94;4491680;28;20041;-66
2023/05/25 16:55:34;;;;;;;1.65;1.20;;;;;;;21.32;39.84;101619.03;4491359;28;20044;-66
2023/05/25 16:57:45;;;;;;;1.90;1.10;;;;;;;21.33;39.54;101611.25;4490552;28;20030;-66
2023/05/25 16:59:55;;;;;;;1.25;1.05;;;;;;;21.27;39.45;101599.13;4492522;28;20038;-66
2023/05/25 17:02:06;;;;;;;2.38;1.10;;;;;;;21.28;39.73;101595.06;4491302;28;20410;-66
2023/05/25 17:04:16;;;;;;;2.40;1.23;;;;;;;21.31;39.72;101605.84;4491864;28;20042;-68
2023/05/25 17:06:27;;;;;;;2.15;1.00;;;;;;;21.27;40.18;101592.53;4491510;28;20038;-66
2023/05/25 17:08:37;;;;;;;2.70;1.30;;;;;;;21.33;40.37;101606.34;4491331;28;20030;-66
2023/05/25 17:10:48;;;;;;;1.75;1.00;;;;;;;21.30;40.79;101604.19;4491435;28;20967;-66
2023/05/25 17:12:58;;;;;;;2.75;1.30;;;;;;;21.31;40.75;101600.09;4491712;28;20116;-65
2023/05/25 17:15:12;;;;;;;1.85;1.10;;;;;;;21.33;40.68;101609.22;4490839;28;20042;-67
2023/05/25 17:17:23;;;;;;;2.15;1.20;;;;;;;21.33;39.96;101603.47;4491031;28;20045;-66
2023/05/25 17:19:33;;;;;;;1.60;1.27;;;;;;;21.35;40.11;101606.84;4490881;28;20088;-65
2023/05/25 17:21:44;;;;;;;2.00;1.13;;;;;;;21.36;39.87;101604.84;4492072;28;20085;-66
2023/05/25 17:23:54;;;;;;;1.73;1.10;;;;;;;21.33;40.00;101596.88;4490998;28;20061;-65
2023/05/25 17:26:05;;;;;;;2.35;1.10;;;;;;;21.30;40.10;101598.44;4491582;28;20038;-67
2023/05/25 17:28:15;;;;;;;2.30;1.20;;;;;;;21.36;39.86;101601.97;4489110;28;20109;-65
2023/05/25 17:30:26;;;;;;;2.10;1.20;;;;;;;21.41;39.89;101616.94;4490631;28;20558;-65
2023/05/25 17:32:37;;;;;;;1.20;1.10;;;;;;;21.41;39.53;101610.34;4488777;28;20042;-64
2023/05/25 17:34:48;;;;;;;1.73;1.10;;;;;;;21.43;39.90;101611.69;4491108;28;20504;-66
2023/05/25 17:36:58;;;;;;;1.77;1.15;;;;;;;21.43;39.73;101611.69;4491364;28;20026;-66
2023/05/25 17:39:09;;;;;;;2.38;1.13;;;;;;;21.38;39.93;101603.28;4493500;28;20042;-66
2023/05/25 17:41:19;;;;;;;2.75;1.40;;;;;;;21.37;39.54;101595.03;4491462;28;20030;-67
2023/05/25 17:43:30;;;;;;;1.30;1.02;;;;;;;21.46;40.52;101607.28;4491456;28;20045;-65
2023/05/25 17:45:40;;;;;;;2.13;1.25;;;;;;;21.45;40.39;101606.47;4490896;28;20042;-68
2023/05/25 17:47:51;;;;;;;2.85;1.17;;;;;;;21.45;40.40;101606.47;4490412;28;20038;-65
2023/05/25 17:50:02;;;;;;;3.85;1.20;;;;;;;21.45;40.15;101609.34;4490323;28;20527;-65
2023/05/25 17:52:12;;;;;;;2.05;1.20;;;;;;;21.47;40.04;101612.66;4491607;28;20068;-67
2023/05/25 17:54:24;;;;;;;1.65;1.20;;;;;;;21.50;39.79;101616.91;4490506;28;20041;-65
2023/05/25 17:56:34;;;;;;;3.72;1.50;;;;;;;21.48;38.77;101611.50;4491287;28;20034;-64
2023/05/25 17:58:46;;;;;;;1.92;1.10;;;;;;;21.49;39.07;101606.56;4490100;28;20034;-65
2023/05/25 18:00:56;;;;;;;2.25;1.30;;;;;;;21.47;37.96;101609.81;4489798;28;20042;-66
2023/05/25 18:03:07;;;;;;;2.35;1.20;;;;;;;21.52;38.27;101609.59;4491222;28;20038;-66
2023/05/25 18:05:17;;;;;;;2.97;1.60;;;;;;;21.51;38.20;101610.81;4489452;28;20375;-67
2023/05/25 18:07:28;;;;;;;2.35;1.10;;;;;;;21.51;38.42;101605.06;4490235;28;20046;-65
2023/05/25 18:09:38;;;;;;;2.03;1.20;;;;;;;21.51;38.51;101605.06;4486809;28;20030;-67
2023/05/25 18:11:48;;;;;;;2.45;1.40;;;;;;;21.55;39.11;101605.19;4488510;28;20046;-67
2023/05/25 18:13:59;;;;;;;1.80;1.10;;;;;;;21.49;39.31;101600.84;4491174;28;20382;-65
2023/05/25 18:16:09;;;;;;;1.95;1.20;;;;;;;21.48;39.16;101608.63;4489898;28;20034;-64
2023/05/25 18:18:23;;;;;;;2.65;1.30;;;;;;;21.51;39.49;101605.06;4489103;28;20120;-65
2023/05/25 18:20:33;;;;;;;1.75;1.13;;;;;;;21.48;39.71;101602.88;4490404;28;20073;-65
2023/05/25 18:22:44;;;;;;;1.92;1.05;;;;;;;21.52;39.04;101609.59;4490369;28;20061;-65
2023/05/25 18:24:55;;;;;;;1.88;1.10;;;;;;;21.54;39.30;101609.25;4489338;28;20022;-65
2023/05/25 18:27:05;;;;;;;2.45;1.08;;;;;;;21.53;39.63;101607.56;4489921;28;20725;-65
2023/05/25 18:29:15;;;;;;;1.98;1.10;;;;;;;21.52;40.53;101612.47;4481107;28;20213;-65
2023/05/25 18:31:44;;;;;;;3.15;1.25;;;;;;;21.37;40.96;101581.50;4489893;28;20042;-65
2023/05/25 18:34:38;;;;;;;2.05;1.10;;;;;;;21.53;41.51;101624.81;4491721;28;20145;-66
2023/05/25 18:36:48;;;;;;;2.55;1.30;;;;;;;21.51;41.23;101613.69;4488603;28;20081;-65
2023/05/25 18:38:59;;;;;;;2.58;1.40;;;;;;;21.50;41.32;101614.03;4488300;28;20144;-65
2023/05/25 18:41:41;;;;;;;1.95;1.10;;;;;;;21.52;41.78;101612.47;4489967;28;20058;-66
2023/05/25 18:43:51;;;;;;;2.20;1.30;;;;;;;21.50;42.19;101611.16;4488918;28;20097;-66
2023/05/25 18:46:41;;;;;;;1.65;1.10;;;;;;;21.51;42.26;101613.69;4487455;28;20026;-65
2023/05/25 18:49:39;;;;;;;2.03;1.30;;;;;;;21.52;42.36;101618.22;4488723;28;20045;-65
2023/05/25 18:52:40;;;;;;;2.25;1.30;;;;;;;21.50;43.03;101620.59;4489931;28;20121;-66
2023/05/25 18:54:50;;;;;;;2.22;1.35;;;;;;;21.49;43.74;101621.78;4488896;28;20554;-66
2023/05/25 18:57:01;;;;;;;1.73;1.23;;;;;;;21.40;43.96;101594.31;4489256;28;20026;-66
2023/05/25 18:59:40;;;;;;;2.38;1.33;;;;;;;21.50;44.34;101623.47;4487368;28;20128;-66
2023/05/25 19:02:40;;;;;;;2.15;1.15;;;;;;;21.50;44.04;101620.59;4490071;28;20050;-65
2023/05/25 19:07:51;;;;;;;1.85;1.13;;;;;;;21.46;44.10;101613.88;4488357;28;20039;-66
2023/05/25 19:10:02;;;;;;;1.52;1.20;;;;;;;21.48;44.30;101614.38;4489583;28;20474;-66
2023/05/25 19:12:14;;;;;;;1.75;1.10;;;;;;;21.49;44.12;101609.44;4486786;28;20763;-65
2023/05/25 19:14:40;;;;;;;2.20;1.25;;;;;;;21.46;44.07;101616.75;4495999;28;20071;-65
2023/05/25 19:16:50;;;;;;;1.70;1.20;;;;;;;21.43;43.57;101605.97;4489551;28;20042;-66
2023/05/25 19:19:01;;;;;;;2.47;1.20;;;;;;;21.46;43.32;101619.63;4489197;28;20022;-65
2023/05/25 19:21:40;;;;;;;2.58;1.20;;;;;;;21.49;43.27;101621.78;4503829;28;20084;-65
2023/05/25 19:23:51;;;;;;;1.98;1.17;;;;;;;21.48;43.36;101620.13;4488655;28;20038;-65
2023/05/25 19:26:01;;;;;;;3.03;1.30;;;;;;;21.48;42.70;101613.53;4488389;28;20030;-65
2023/05/25 19:28:40;;;;;;;1.85;1.30;;;;;;;21.48;43.11;101630.75;4503064;28;20050;-65
2023/05/25 19:30:50;;;;;;;2.63;1.42;;;;;;;21.45;43.14;101626.56;4490078;28;21077;-66
2023/05/25 19:33:01;;;;;;;1.85;1.27;;;;;;;21.46;43.17;101627.38;4488766;28;20042;-65
2023/05/25 19:35:40;;;;;;;2.25;1.30;;;;;;;21.48;42.25;101637.34;4488796;28;20092;-65
2023/05/25 19:37:50;;;;;;;2.25;1.30;;;;;;;21.42;42.55;101626.41;4488680;28;20041;-65
2023/05/25 19:40:01;;;;;;;2.13;1.30;;;;;;;21.47;42.12;101640.56;4489572;28;20121;-65
2023/05/25 19:42:11;;;;;;;2.08;1.42;;;;;;;21.47;41.91;101644.28;4487522;28;20042;-66
2023/05/25 19:44:40;;;;;;;2.72;1.63;;;;;;;21.47;41.47;101638.53;4489548;28;20042;-65
2023/05/25 19:47:41;;;;;;;2.72;1.23;;;;;;;21.46;41.50;101636.84;4488879;28;20537;-65
2023/05/25 19:49:51;;;;;;;2.40;1.27;;;;;;;21.46;41.17;101642.59;4487714;28;21121;-65
2023/05/25 19:52:39;;;;;;;2.67;1.25;;;;;;;21.47;41.16;101644.28;4488823;28;20116;-66
2023/05/25 19:54:50;;;;;;;2.78;1.20;;;;;;;21.33;41.09;101626.47;4489118;28;20045;-65
2023/05/25 19:57:01;;;;;;;2.28;1.30;;;;;;;21.46;40.63;101641.75;4487338;28;20045;-66
2023/05/25 19:59:12;;;;;;;2.75;1.48;;;;;;;21.42;40.25;101638.72;4487664;28;20136;-65
2023/05/25 20:01:43;;;;;;;2.20;1.25;;;;;;;21.46;40.00;101654.09;4488984;28;20038;-65
2023/05/25 20:03:54;;;;;;;2.55;1.50;;;;;;;21.42;39.89;101647.34;4488711;28;20065;-65
2023/05/25 20:06:04;;;;;;;2.42;1.40;;;;;;;21.46;40.05;101650.38;4503186;28;20116;-65
2023/05/25 20:08:40;;;;;;;3.22;1.50;;;;;;;21.46;40.04;101659.84;4488237;28;20096;-65
2023/05/25 20:10:51;;;;;;;2.90;1.30;;;;;;;21.44;39.37;101656.47;4490991;28;20266;-66
2023/05/25 20:13:01;;;;;;;2.92;1.30;;;;;;;21.45;39.56;101658.16;4488596;28;20613;-65
2023/05/25 20:15:40;;;;;;;3.65;1.50;;;;;;;21.46;39.23;101670.47;4487415;28;20509;-65
2023/05/25 20:17:50;;;;;;;;;;;;;;;21.46;38.99;101664.72;4489301;28;20046;-65
2023/05/25 20:20:38;;;;;;;2.90;1.30;;;;;;;21.45;39.20;101663.91;4484987;28;20338;-65
2023/05/25 20:22:48;;;;;;;2.28;1.30;;;;;;;21.40;39.38;101664.09;4489559;28;20061;-65
2023/05/25 20:24:59;;;;;;;2.75;1.30;;;;;;;21.29;39.21;101651.31;4488391;28;20093;-65
2023/05/25 20:27:10;;;;;;;2.70;1.23;;;;;;;21.38;38.96;101668.50;4488363;28;20038;-65
2023/05/25 20:29:38;;;;;;;2.60;1.38;;;;;;;21.43;38.71;101674.91;4485931;28;20292;-66
2023/05/25 20:31:49;;;;;;;3.20;1.45;;;;;;;21.41;38.42;101668.66;4487232;28;20041;-65
2023/05/25 20:34:40;;;;;;;2.95;1.20;;;;;;;21.44;37.99;101673.69;4489308;28;20038;-65
2023/05/25 20:36:50;;;;;;;3.03;1.40;;;;;;;21.43;38.48;101668.28;4487860;28;20038;-65
2023/05/25 20:39:02;;;;;;;3.50;1.55;;;;;;;21.43;38.26;101671.16;4489981;28;20129;-65
2023/05/25 20:41:40;;;;;;;3.42;1.27;;;;;;;21.43;38.16;101672.03;4488894;28;20042;-65
2023/05/25 20:43:51;;;;;;;2.17;1.27;;;;;;;21.41;38.21;101668.66;4487276;28;20034;-65
2023/05/25 20:46:01;;;;;;;2.30;1.30;;;;;;;21.44;37.96;101670.81;4486155;28;20066;-65
2023/05/25 20:48:40;;;;;;;2.72;1.33;;;;;;;21.44;37.69;101678.59;4486880;28;20038;-65
2023/05/25 20:50:50;;;;;;;3.63;1.40;;;;;;;21.38;37.74;101662.75;4487513;28;20328;-65
2023/05/25 20:53:00;;;;;;;3.22;1.33;;;;;;;21.42;37.65;101678.94;4487798;28;20038;-65
2023/05/25 20:55:11;;;;;;;2.80;1.40;;;;;;;21.42;37.85;101681.81;4487029;28;20609;-65
2023/05/25 20:57:40;;;;;;;2.92;1.45;;;;;;;21.36;37.48;101670.88;4489021;28;20364;-65
2023/05/25 20:59:52;;;;;;;3.03;1.38;;;;;;;21.36;37.57;101676.63;4487148;28;20617;-65
2023/05/25 21:02:03;;;;;;;2.90;1.50;;;;;;;21.42;38.01;101687.53;4488089;28;20803;-65
2023/05/25 21:04:13;;;;;;;2.88;1.45;;;;;;;21.40;38.14;101689.09;4487194;28;20033;-65
2023/05/25 21:06:25;;;;;;;2.42;1.27;;;;;;;21.40;37.86;101694.84;4486969;28;20455;-65
2023/05/25 21:08:41;;;;;;;2.65;1.40;;;;;;;21.37;37.91;101681.19;4486882;28;20114;-66
2023/05/25 21:10:51;;;;;;;2.15;1.20;;;;;;;21.42;37.56;101698.22;4488218;28;20037;-65
2023/05/25 21:13:02;;;;;;;2.80;1.33;;;;;;;21.38;37.36;101692.31;4487935;28;20525;-66
2023/05/25 21:15:12;;;;;;;2.70;1.30;;;;;;;21.41;37.33;101685.88;4484718;28;20038;-65
2023/05/25 21:17:23;;;;;;;4.10;1.30;;;;;;;21.42;37.32;101692.47;4486252;28;20069;-65
2023/05/25 21:19:40;;;;;;;3.35;1.40;;;;;;;21.42;37.52;101703.97;4486171;28;20034;-66
2023/05/25 21:21:50;;;;;;;3.33;1.40;;;;;;;21.42;37.34;101701.91;4485686;28;20046;-65
2023/05/25 21:24:01;;;;;;;3.03;1.40;;;;;;;21.40;37.58;101698.56;4484708;28;20038;-65
2023/05/25 21:26:12;;;;;;;2.95;1.40;;;;;;;21.39;37.04;101691.13;4472146;28;20515;-65